Weather History for Wray Municipal Airport, CO

Change the Weather History Date:

Saturday, January 25, 2014

  Actual Average (KHEQ) Record (KHEQ)
Temperature  
Mean Temperature 46 °F -  
Max Temperature 61 °F 41 °F 60 °F (2014)
Min Temperature 30 °F 16 °F 33 °F (2014)
Degree Days  
Heating Degree Days 20    
Moisture  
Dew Point 23 °F    
Average Humidity 44    
Maximum Humidity 80    
Minimum Humidity 23    
Precipitation  
Precipitation 0.00 in - - ()
Sea Level Pressure  
Sea Level Pressure 30.01 in    
Wind  
Wind Speed 14 mph (West)    
Max Wind Speed 24 mph    
Max Gust Speed 32 mph    
Visibility 10 miles    
Events      
Averages and records for this station are not official NWS values.
T = Trace of Precipitation, MM = Missing Value Source: NWS Daily Summary

Daily Weather History Graph

Daily Weather History Graph

Search for Another Location

Airport:

Trip Planner

Search our weather history database for the weather conditions in past years. The results will help you decide how hot, cold, wet, or windy it might be!

Date:

Astronomy

Jan. 25, 2014 Rise Set
Actual Time 7:03 AM MST 4:59 PM MST
Civil Twilight 6:34 AM MST 5:28 PM MST
Nautical Twilight 6:01 AM MST 6:01 PM MST
Astronomical Twilight 5:29 AM MST 6:33 PM MST
Moon 1:37 AM MST (1/25) 12:01 PM MST (1/25)
Length of Visible Light 10h 54m
Length of Day
9h 56m
Waning Crescent, 33% of the Moon is Illuminated
Jan 25
Waning Crescent
Jan 30
New
Feb 6
First Quarter
Feb 14
Full
Feb 22
Last Quarter

Hourly Weather History & Observations

Time (MST) Temp. Windchill Dew Point Humidity Pressure Visibility Wind Dir Wind Speed Gust Speed Precip Events Conditions
12:15 AM 43.7 °F 36.0 °F 21.7 °F 42% 30.08 in 10.0 mi WNW 17.3 mph - N/A   Clear
12:35 AM 43.5 °F 37.1 °F 21.4 °F 41% 30.08 in 10.0 mi WNW 12.7 mph - N/A   Clear
12:55 AM 43.7 °F 36.3 °F 21.2 °F 41% 30.08 in 10.0 mi WNW 16.1 mph 21.9 mph N/A   Clear
1:15 AM 44.8 °F 36.9 °F 20.3 °F 38% 30.09 in 10.0 mi WNW 19.6 mph 24.2 mph N/A   Clear
1:35 AM 44.6 °F 37.4 °F 20.8 °F 39% 30.08 in 10.0 mi WNW 16.1 mph 23.0 mph N/A   Clear
1:55 AM 44.6 °F 37.2 °F 21.2 °F 39% 30.08 in 10.0 mi WNW 17.3 mph - N/A   Clear
2:15 AM 45.9 °F 39.1 °F 20.3 °F 36% 30.09 in 10.0 mi WNW 16.1 mph 23.0 mph N/A   Clear
2:35 AM 45.1 °F 39.1 °F 21.0 °F 38% 30.08 in 10.0 mi West 12.7 mph 23.0 mph N/A   Clear
2:55 AM 36.7 °F 29.4 °F 24.3 °F 61% 30.09 in 10.0 mi WSW 10.4 mph - N/A   Clear
3:15 AM 36.7 °F 29.4 °F 24.1 °F 60% 30.08 in 10.0 mi West 10.4 mph - N/A   Clear
3:35 AM 42.8 °F 35.4 °F 20.7 °F 41% 30.09 in 10.0 mi West 15.0 mph - N/A   Clear
3:55 AM 43.7 °F 36.6 °F 19.8 °F 38% 30.09 in 10.0 mi WNW 15.0 mph 23.0 mph N/A   Clear
4:15 AM 43.7 °F 36.3 °F 19.4 °F 38% 30.09 in 10.0 mi WNW 16.1 mph 21.9 mph N/A   Clear
4:35 AM 43.2 °F 35.9 °F 19.8 °F 39% 30.08 in 10.0 mi WNW 15.0 mph - N/A   Clear
4:55 AM 43.7 °F 36.3 °F 19.4 °F 38% 30.08 in 10.0 mi WNW 16.1 mph 21.9 mph N/A   Clear
5:15 AM 44.1 °F 36.8 °F 18.5 °F 36% 30.09 in 10.0 mi WNW 16.1 mph 23.0 mph N/A   Clear
5:35 AM 43.7 °F 36.3 °F 18.5 °F 36% 30.09 in 10.0 mi NW 16.1 mph 20.7 mph N/A   Clear
5:55 AM 43.7 °F 36.9 °F 19.2 °F 38% 30.10 in 10.0 mi NW 13.8 mph 20.7 mph N/A   Clear
6:15 AM 42.8 °F 35.8 °F 18.5 °F 38% 30.10 in 10.0 mi WNW 13.8 mph - N/A   Clear
6:35 AM 40.1 °F 34.7 °F 19.6 °F 44% 30.10 in 10.0 mi West 8.1 mph - N/A   Clear
6:55 AM 33.6 °F 26.8 °F 21.2 °F 60% 30.10 in 10.0 mi SW 8.1 mph - N/A   Clear
7:15 AM 34.3 °F 27.0 °F 21.4 °F 59% 30.11 in 10.0 mi SW 9.2 mph - N/A   Clear
7:35 AM 36.5 °F 29.7 °F 21.2 °F 54% 30.12 in 10.0 mi West 9.2 mph - N/A   Clear
7:55 AM 38.3 °F 31.4 °F 21.6 °F 51% 30.11 in 10.0 mi West 10.4 mph - N/A   Clear
8:15 AM 42.4 °F 34.7 °F 21.0 °F 43% 30.11 in 10.0 mi WNW 16.1 mph 20.7 mph N/A   Clear
8:35 AM 45.5 °F 39.2 °F 19.4 °F 35% 30.12 in 10.0 mi WNW 13.8 mph 21.9 mph N/A   Clear
8:55 AM 47.7 °F - 21.6 °F 36% 30.12 in 10.0 mi NW 16.1 mph 21.9 mph N/A   Clear
9:15 AM 50.2 °F - 25.2 °F 38% 30.12 in 10.0 mi NW 20.7 mph 29.9 mph N/A   Clear
9:35 AM 51.4 °F - 23.9 °F 34% 30.12 in 10.0 mi NW 17.3 mph 25.3 mph N/A   Clear
9:55 AM 52.3 °F - 24.6 °F 34% 30.12 in 10.0 mi NW 24.2 mph 32.2 mph N/A   Clear
10:15 AM 53.1 °F - 25.3 °F 34% 30.12 in 10.0 mi NNW 19.6 mph 29.9 mph N/A   Clear
10:35 AM 54.3 °F - 25.5 °F 33% 30.13 in 10.0 mi NW 20.7 mph 28.8 mph N/A   Clear
10:55 AM 55.0 °F - 26.1 °F 33% 30.12 in 10.0 mi NNW 20.7 mph 26.5 mph N/A   Clear
11:15 AM 54.7 °F - 25.7 °F 33% 30.11 in 10.0 mi NNW 19.6 mph 27.6 mph N/A   Clear
11:35 AM 56.5 °F - 25.7 °F 31% 30.09 in 10.0 mi NW 19.6 mph 25.3 mph N/A   Clear
11:55 AM 56.5 °F - 25.3 °F 30% 30.07 in 10.0 mi NW 20.7 mph 25.3 mph N/A   Clear
12:15 PM 57.4 °F - 25.3 °F 29% 30.05 in 10.0 mi NW 16.1 mph 20.7 mph N/A   Clear
12:35 PM 58.5 °F - 25.5 °F 28% 30.04 in 10.0 mi WNW 17.3 mph 23.0 mph N/A   Clear
12:55 PM 59.0 °F - 25.3 °F 28% 30.03 in 10.0 mi NW 13.8 mph - N/A   Clear
1:15 PM 58.8 °F - 24.8 °F 27% 30.01 in 10.0 mi NW 12.7 mph 24.2 mph N/A   Clear
1:35 PM 59.5 °F - 24.3 °F 26% 29.98 in 10.0 mi NW 9.2 mph 16.1 mph N/A   Clear
1:55 PM 60.4 °F - 23.9 °F 25% 29.97 in 10.0 mi WNW 11.5 mph - N/A   Clear
2:15 PM 60.6 °F - 23.7 °F 24% 29.97 in 10.0 mi WNW 10.4 mph 16.1 mph N/A   Clear
2:35 PM 60.8 °F - 23.5 °F 24% 29.96 in 10.0 mi West 8.1 mph - N/A   Clear
2:55 PM 61.5 °F - 23.0 °F 23% 29.95 in 10.0 mi WNW 10.4 mph - N/A   Clear
3:15 PM 61.7 °F - 22.8 °F 23% 29.94 in 10.0 mi West 11.5 mph - N/A   Clear
3:35 PM 61.0 °F - 23.2 °F 24% 29.93 in 10.0 mi WSW 6.9 mph - N/A   Clear
3:55 PM 60.4 °F - 23.2 °F 24% 29.92 in 10.0 mi SW 10.4 mph - N/A   Clear
4:15 PM 59.2 °F - 23.5 °F 25% 29.92 in 10.0 mi SW 10.4 mph - N/A   Clear
4:35 PM 57.2 °F - 24.4 °F 28% 29.91 in 10.0 mi SW 8.1 mph - N/A   Clear
4:55 PM 54.5 °F - 24.4 °F 31% 29.90 in 10.0 mi SW 9.2 mph - N/A   Clear
5:15 PM 50.5 °F - 25.2 °F 37% 29.90 in 10.0 mi SW 9.2 mph - N/A   Clear
5:35 PM 47.5 °F - 25.9 °F 43% 29.90 in 10.0 mi SW 8.1 mph - N/A   Clear
5:55 PM 46.0 °F 41.4 °F 26.6 °F 47% 29.90 in 10.0 mi WSW 9.2 mph - N/A   Clear
6:15 PM 43.7 °F 38.6 °F 27.1 °F 52% 29.89 in 10.0 mi WSW 9.2 mph - N/A   Clear
6:35 PM 42.4 °F 37.0 °F 27.3 °F 55% 29.89 in 10.0 mi West 9.2 mph - N/A   Clear
6:55 PM 43.9 °F 38.3 °F 27.1 °F 52% 29.89 in 10.0 mi WSW 10.4 mph - N/A   Clear
7:15 PM 42.1 °F 36.6 °F 27.3 °F 56% 29.89 in 10.0 mi West 9.2 mph - N/A   Clear
8:35 PM 36.5 °F - 27.1 °F 69% 29.88 in 10.0 mi North - - N/A   Clear
8:55 PM 35.4 °F - 26.8 °F 71% 29.87 in 10.0 mi North - - N/A   Clear
9:15 PM 34.5 °F 26.7 °F 26.6 °F 73% 29.87 in 10.0 mi West 10.4 mph - N/A   Clear
9:35 PM 32.9 °F 25.3 °F 26.2 °F 76% 29.87 in 10.0 mi West 9.2 mph - N/A   Clear
9:55 PM 32.4 °F 24.0 °F 26.1 °F 78% 29.87 in 10.0 mi West 10.4 mph - N/A   Clear
10:15 PM 32.7 °F 25.7 °F 25.7 °F 75% 29.86 in 10.0 mi West 8.1 mph - N/A   Clear
10:35 PM 32.0 °F 24.2 °F 25.3 °F 76% 29.87 in 10.0 mi West 9.2 mph - N/A   Clear
10:55 PM 31.5 °F 22.9 °F 25.3 °F 78% 29.87 in 10.0 mi WSW 10.4 mph - N/A   Clear
11:15 PM 30.6 °F 23.8 °F 25.2 °F 80% 29.87 in 10.0 mi WSW 6.9 mph - N/A   Clear
11:35 PM 30.9 °F 22.2 °F 25.3 °F 80% 29.86 in 10.0 mi West 10.4 mph - N/A   Clear
11:55 PM 32.0 °F 24.8 °F 25.7 °F 78% 29.86 in 10.0 mi West 8.1 mph - N/A   Clear